LFBO/TLS METAR and TAF weather

Enter ICAO airport designator
Station Type Date Time Source
LFBO METAR 2019/12/07 05:00 UTC NOAA

LFBO 070500Z AUTO 17003KT 4700 BR BKN013 02/02 Q1023 BECMG BKN016


Station Type Date Time Source
LFBO Decoded METAR 2019/12/07 05:00 UTC NOAA

Toulouse / Blagnac, France (LFBO) 43-38N 001-22E 153M
Dec 07, 2019 - 12:00 AM EST / 2019.12.07 0500 UTC
Wind: from the S (170 degrees) at 3 MPH (3 KT):0
Visibility: 2 mile(s):0
Sky conditions: mostly cloudy
Weather: mist
Temperature: 35 F (2 C)
Dew Point: 35 F (2 C)
Relative Humidity: 100%
Pressure (altimeter): 30.21 in. Hg (1023 hPa)
ob: LFBO 070500Z AUTO 17003KT 4700 BR BKN013 02/02 Q1023 BECMG BKN016
cycle: 5

Station Type Date Time Source
LFBO TAF 2019/12/07 04:37 UTC NOAA

TAF
AMD LFBO 070429Z 0704/0806 VRB03KT 3000 BR BKN016
BECMG 0708/0710 28006KT 9999 NSW BKN012
BECMG 0716/0718 VRB03KT 4000 BR OVC005 PROB40
TEMPO 0800/0806 0400 FG VV///

Example: see airport list